sensor_id;sensor_type;location;lat;lon;timestamp;pressure;altitude;pressure_sealevel;temperature;humidity
70971;BME280;58632;51.718;19.446;2022-10-31T00:02:00;99879.95;;;8.39;80.30
70971;BME280;58632;51.718;19.446;2022-10-31T00:04:26;99880.27;;;8.33;80.47
70971;BME280;58632;51.718;19.446;2022-10-31T00:06:51;99884.58;;;8.28;80.47
70971;BME280;58632;51.718;19.446;2022-10-31T00:09:17;99889.23;;;8.22;80.26
70971;BME280;58632;51.718;19.446;2022-10-31T00:11:42;99888.78;;;8.20;80.54
70971;BME280;58632;51.718;19.446;2022-10-31T00:14:08;99888.66;;;8.20;80.42
70971;BME280;58632;51.718;19.446;2022-10-31T00:16:33;99897.86;;;8.22;80.57
70971;BME280;58632;51.718;19.446;2022-10-31T00:19:00;99900.36;;;8.22;80.63
70971;BME280;58632;51.718;19.446;2022-10-31T00:21:26;99904.94;;;8.20;80.81
70971;BME280;58632;51.718;19.446;2022-10-31T00:23:52;99905.03;;;8.20;81.18
70971;BME280;58632;51.718;19.446;2022-10-31T00:26:17;99905.13;;;8.21;81.06
70971;BME280;58632;51.718;19.446;2022-10-31T00:28:43;99904.71;;;8.19;81.07
70971;BME280;58632;51.718;19.446;2022-10-31T00:31:09;99904.02;;;8.19;81.17
70971;BME280;58632;51.718;19.446;2022-10-31T00:33:36;99904.04;;;8.21;81.22
70971;BME280;58632;51.718;19.446;2022-10-31T00:36:03;99902.30;;;8.23;81.29
70971;BME280;58632;51.718;19.446;2022-10-31T00:38:28;99903.15;;;8.24;81.31
70971;BME280;58632;51.718;19.446;2022-10-31T00:40:54;99904.73;;;8.24;81.28
70971;BME280;58632;51.718;19.446;2022-10-31T00:43:19;99900.59;;;8.24;81.13
70971;BME280;58632;51.718;19.446;2022-10-31T00:45:45;99904.02;;;8.23;81.10
70971;BME280;58632;51.718;19.446;2022-10-31T00:48:11;99904.05;;;8.21;81.10
70971;BME280;58632;51.718;19.446;2022-10-31T00:50:36;99903.41;;;8.16;81.11
70971;BME280;58632;51.718;19.446;2022-10-31T00:53:02;99906.23;;;8.13;80.76
70971;BME280;58632;51.718;19.446;2022-10-31T00:55:28;99901.53;;;8.06;80.54
70971;BME280;58632;51.718;19.446;2022-10-31T00:57:53;99902.52;;;8.03;80.76
70971;BME280;58632;51.718;19.446;2022-10-31T01:03:41;99911.89;;;8.01;81.07
70971;BME280;58632;51.718;19.446;2022-10-31T01:06:10;99911.18;;;8.01;81.09
70971;BME280;58632;51.718;19.446;2022-10-31T01:08:37;99912.29;;;8.00;81.10
70971;BME280;58632;51.718;19.446;2022-10-31T01:13:28;99916.06;;;7.96;80.72
70971;BME280;58632;51.718;19.446;2022-10-31T01:15:56;99916.56;;;7.93;80.62
70971;BME280;58632;51.718;19.446;2022-10-31T01:18:22;99914.32;;;7.91;80.75
70971;BME280;58632;51.718;19.446;2022-10-31T01:20:56;99911.98;;;7.88;80.85
70971;BME280;58632;51.718;19.446;2022-10-31T01:23:21;99910.90;;;7.84;80.75
70971;BME280;58632;51.718;19.446;2022-10-31T01:25:47;99907.45;;;7.81;81.03
70971;BME280;58632;51.718;19.446;2022-10-31T01:28:13;99902.16;;;7.78;80.88
70971;BME280;58632;51.718;19.446;2022-10-31T01:30:38;99901.25;;;7.75;80.76
70971;BME280;58632;51.718;19.446;2022-10-31T01:33:04;99901.38;;;7.74;80.68
70971;BME280;58632;51.718;19.446;2022-10-31T01:35:30;99898.98;;;7.73;80.76
70971;BME280;58632;51.718;19.446;2022-10-31T01:37:55;99899.41;;;7.74;80.64
70971;BME280;58632;51.718;19.446;2022-10-31T01:40:21;99899.08;;;7.75;80.74
70971;BME280;58632;51.718;19.446;2022-10-31T01:42:46;99896.24;;;7.74;80.88
70971;BME280;58632;51.718;19.446;2022-10-31T01:45:12;99894.83;;;7.74;80.94
70971;BME280;58632;51.718;19.446;2022-10-31T01:47:44;99899.36;;;7.74;80.95
70971;BME280;58632;51.718;19.446;2022-10-31T01:50:12;99897.58;;;7.73;81.06
70971;BME280;58632;51.718;19.446;2022-10-31T01:52:40;99896.55;;;7.76;80.89
70971;BME280;58632;51.718;19.446;2022-10-31T01:55:11;99896.02;;;7.77;80.86
70971;BME280;58632;51.718;19.446;2022-10-31T01:57:39;99895.08;;;7.78;80.71
70971;BME280;58632;51.718;19.446;2022-10-31T02:00:06;99891.39;;;7.78;80.92
70971;BME280;58632;51.718;19.446;2022-10-31T02:02:35;99893.60;;;7.78;81.07
70971;BME280;58632;51.718;19.446;2022-10-31T02:05:01;99897.29;;;7.79;81.24
70971;BME280;58632;51.718;19.446;2022-10-31T02:07:30;99894.56;;;7.79;81.37
70971;BME280;58632;51.718;19.446;2022-10-31T02:09:59;99893.29;;;7.80;81.11
70971;BME280;58632;51.718;19.446;2022-10-31T02:12:25;99894.27;;;7.83;81.34
70971;BME280;58632;51.718;19.446;2022-10-31T02:14:51;99893.23;;;7.84;81.11
70971;BME280;58632;51.718;19.446;2022-10-31T02:17:16;99895.75;;;7.83;81.07
70971;BME280;58632;51.718;19.446;2022-10-31T02:25:13;99894.42;;;7.82;81.29
70971;BME280;58632;51.718;19.446;2022-10-31T02:32:54;99903.32;;;7.83;81.16
70971;BME280;58632;51.718;19.446;2022-10-31T02:35:23;99906.67;;;7.85;81.20
70971;BME280;58632;51.718;19.446;2022-10-31T02:37:55;99908.94;;;7.84;81.17
70971;BME280;58632;51.718;19.446;2022-10-31T02:40:26;99903.85;;;7.83;81.13
70971;BME280;58632;51.718;19.446;2022-10-31T02:47:55;99903.39;;;7.77;81.01
70971;BME280;58632;51.718;19.446;2022-10-31T02:50:24;99907.38;;;7.77;80.93
70971;BME280;58632;51.718;19.446;2022-10-31T02:52:51;99910.13;;;7.81;81.07
70971;BME280;58632;51.718;19.446;2022-10-31T02:57:53;99911.52;;;7.85;81.39
70971;BME280;58632;51.718;19.446;2022-10-31T03:00:20;99911.39;;;7.90;81.69
70971;BME280;58632;51.718;19.446;2022-10-31T03:05:26;99916.27;;;8.00;81.91
70971;BME280;58632;51.718;19.446;2022-10-31T03:08:41;99916.83;;;8.05;81.68
70971;BME280;58632;51.718;19.446;2022-10-31T03:10:47;99919.36;;;8.13;82.02
70971;BME280;58632;51.718;19.446;2022-10-31T03:13:21;99917.78;;;8.21;82.15
70971;BME280;58632;51.718;19.446;2022-10-31T03:15:49;99916.23;;;8.25;81.86
70971;BME280;58632;51.718;19.446;2022-10-31T03:18:19;99916.30;;;8.24;81.56
70971;BME280;58632;51.718;19.446;2022-10-31T03:20:50;99911.45;;;8.21;81.72
70971;BME280;58632;51.718;19.446;2022-10-31T03:23:17;99913.46;;;8.16;81.85
70971;BME280;58632;51.718;19.446;2022-10-31T03:25:44;99912.11;;;8.13;82.07
70971;BME280;58632;51.718;19.446;2022-10-31T03:28:12;99917.71;;;8.13;82.04
70971;BME280;58632;51.718;19.446;2022-10-31T03:30:41;99922.27;;;8.11;81.81
70971;BME280;58632;51.718;19.446;2022-10-31T03:33:09;99921.48;;;8.07;81.75
70971;BME280;58632;51.718;19.446;2022-10-31T03:35:36;99924.12;;;8.06;81.97
70971;BME280;58632;51.718;19.446;2022-10-31T03:38:02;99924.20;;;8.08;82.14
70971;BME280;58632;51.718;19.446;2022-10-31T03:40:28;99925.69;;;8.10;82.35
70971;BME280;58632;51.718;19.446;2022-10-31T03:42:57;99926.23;;;8.14;82.45
70971;BME280;58632;51.718;19.446;2022-10-31T03:45:24;99929.45;;;8.13;82.22
70971;BME280;58632;51.718;19.446;2022-10-31T03:47:51;99929.05;;;8.05;82.06
70971;BME280;58632;51.718;19.446;2022-10-31T03:50:18;99931.36;;;7.98;82.23
70971;BME280;58632;51.718;19.446;2022-10-31T03:52:49;99929.28;;;7.93;82.33
70971;BME280;58632;51.718;19.446;2022-10-31T03:55:19;99929.13;;;7.89;82.56
70971;BME280;58632;51.718;19.446;2022-10-31T03:57:59;99927.83;;;7.91;82.79
70971;BME280;58632;51.718;19.446;2022-10-31T04:00:26;99934.45;;;7.96;82.44
70971;BME280;58632;51.718;19.446;2022-10-31T04:03:11;99937.40;;;8.02;82.52
70971;BME280;58632;51.718;19.446;2022-10-31T04:05:39;99942.21;;;8.10;82.67
70971;BME280;58632;51.718;19.446;2022-10-31T04:08:07;99940.98;;;8.15;82.78
70971;BME280;58632;51.718;19.446;2022-10-31T04:10:34;99946.13;;;8.20;82.72
70971;BME280;58632;51.718;19.446;2022-10-31T04:13:02;99949.76;;;8.23;82.58
70971;BME280;58632;51.718;19.446;2022-10-31T04:15:29;99952.16;;;8.24;82.57
70971;BME280;58632;51.718;19.446;2022-10-31T04:17:56;99952.90;;;8.25;82.33
70971;BME280;58632;51.718;19.446;2022-10-31T04:20:33;99950.09;;;8.26;82.05
70971;BME280;58632;51.718;19.446;2022-10-31T04:22:59;99953.95;;;8.24;81.89
70971;BME280;58632;51.718;19.446;2022-10-31T04:25:24;99955.24;;;8.22;81.85
70971;BME280;58632;51.718;19.446;2022-10-31T04:27:50;99951.44;;;8.21;82.33
70971;BME280;58632;51.718;19.446;2022-10-31T04:30:15;99951.95;;;8.26;82.69
70971;BME280;58632;51.718;19.446;2022-10-31T04:32:41;99952.17;;;8.31;82.62
70971;BME280;58632;51.718;19.446;2022-10-31T04:35:07;99955.45;;;8.31;82.52
70971;BME280;58632;51.718;19.446;2022-10-31T04:37:32;99951.92;;;8.24;82.09
70971;BME280;58632;51.718;19.446;2022-10-31T04:39:58;99948.81;;;8.16;81.91
70971;BME280;58632;51.718;19.446;2022-10-31T04:42:24;99949.91;;;8.10;82.10
70971;BME280;58632;51.718;19.446;2022-10-31T04:44:50;99945.98;;;8.09;82.56
70971;BME280;58632;51.718;19.446;2022-10-31T04:47:15;99945.46;;;8.15;82.94
70971;BME280;58632;51.718;19.446;2022-10-31T04:49:41;99950.14;;;8.15;82.78
70971;BME280;58632;51.718;19.446;2022-10-31T04:52:07;99946.79;;;8.11;82.64
70971;BME280;58632;51.718;19.446;2022-10-31T04:54:33;99942.66;;;8.07;82.72
70971;BME280;58632;51.718;19.446;2022-10-31T04:56:58;99945.08;;;8.02;82.76
70971;BME280;58632;51.718;19.446;2022-10-31T04:59:24;99946.11;;;8.03;83.19
70971;BME280;58632;51.718;19.446;2022-10-31T05:01:49;99946.72;;;7.99;83.02
70971;BME280;58632;51.718;19.446;2022-10-31T05:04:15;99948.58;;;8.02;82.98
70971;BME280;58632;51.718;19.446;2022-10-31T05:06:40;99952.27;;;8.07;83.15
70971;BME280;58632;51.718;19.446;2022-10-31T05:09:06;99958.52;;;8.13;83.14
70971;BME280;58632;51.718;19.446;2022-10-31T05:11:32;99962.56;;;8.16;83.26
70971;BME280;58632;51.718;19.446;2022-10-31T05:13:58;99962.45;;;8.16;82.98
70971;BME280;58632;51.718;19.446;2022-10-31T05:16:23;99966.11;;;8.13;82.99
70971;BME280;58632;51.718;19.446;2022-10-31T05:18:49;99964.81;;;8.12;83.06
70971;BME280;58632;51.718;19.446;2022-10-31T05:21:14;99965.15;;;8.12;83.35
70971;BME280;58632;51.718;19.446;2022-10-31T05:23:40;99969.33;;;8.11;83.04
70971;BME280;58632;51.718;19.446;2022-10-31T05:26:05;99969.34;;;8.15;83.15
70971;BME280;58632;51.718;19.446;2022-10-31T05:28:31;99964.34;;;8.20;83.18
70971;BME280;58632;51.718;19.446;2022-10-31T05:30:56;99967.95;;;8.19;82.95
70971;BME280;58632;51.718;19.446;2022-10-31T05:33:22;99967.55;;;8.23;83.15
70971;BME280;58632;51.718;19.446;2022-10-31T05:35:48;99968.33;;;8.29;83.21
70971;BME280;58632;51.718;19.446;2022-10-31T05:38:14;99966.38;;;8.37;83.68
70971;BME280;58632;51.718;19.446;2022-10-31T05:40:39;99967.96;;;8.46;84.05
70971;BME280;58632;51.718;19.446;2022-10-31T05:43:05;99970.85;;;8.55;83.94
70971;BME280;58632;51.718;19.446;2022-10-31T05:45:30;99971.70;;;8.56;83.72
70971;BME280;58632;51.718;19.446;2022-10-31T05:47:57;99975.85;;;8.51;83.09
70971;BME280;58632;51.718;19.446;2022-10-31T05:50:23;99976.27;;;8.45;83.15
70971;BME280;58632;51.718;19.446;2022-10-31T05:52:56;99978.03;;;8.42;83.45
70971;BME280;58632;51.718;19.446;2022-10-31T05:55:22;99973.98;;;8.39;83.34
70971;BME280;58632;51.718;19.446;2022-10-31T05:57:47;99974.30;;;8.39;83.45
70971;BME280;58632;51.718;19.446;2022-10-31T06:00:13;99970.61;;;8.38;83.48
70971;BME280;58632;51.718;19.446;2022-10-31T06:02:39;99973.60;;;8.39;83.62
70971;BME280;58632;51.718;19.446;2022-10-31T06:05:05;99971.24;;;8.42;83.24
70971;BME280;58632;51.718;19.446;2022-10-31T06:07:34;99973.42;;;8.45;83.43
70971;BME280;58632;51.718;19.446;2022-10-31T06:10:00;99975.97;;;8.53;83.69
70971;BME280;58632;51.718;19.446;2022-10-31T06:12:26;99977.81;;;8.64;83.76
70971;BME280;58632;51.718;19.446;2022-10-31T06:14:51;99975.86;;;8.76;84.32
70971;BME280;58632;51.718;19.446;2022-10-31T06:17:17;99976.35;;;8.86;84.21
70971;BME280;58632;51.718;19.446;2022-10-31T06:19:42;99976.02;;;8.90;83.76
70971;BME280;58632;51.718;19.446;2022-10-31T06:22:08;99973.30;;;8.89;83.72
70971;BME280;58632;51.718;19.446;2022-10-31T06:24:33;99977.20;;;8.96;83.72
70971;BME280;58632;51.718;19.446;2022-10-31T06:26:59;99983.37;;;9.06;83.89
70971;BME280;58632;51.718;19.446;2022-10-31T06:29:24;99986.41;;;9.14;83.70
70971;BME280;58632;51.718;19.446;2022-10-31T06:31:51;99989.70;;;9.14;83.49
70971;BME280;58632;51.718;19.446;2022-10-31T06:34:16;99994.27;;;9.18;83.51
70971;BME280;58632;51.718;19.446;2022-10-31T06:36:42;99995.61;;;9.23;83.85
70971;BME280;58632;51.718;19.446;2022-10-31T06:39:08;99992.05;;;9.31;84.06
70971;BME280;58632;51.718;19.446;2022-10-31T06:41:33;99988.33;;;9.39;84.29
70971;BME280;58632;51.718;19.446;2022-10-31T06:43:59;99987.84;;;9.45;84.06
70971;BME280;58632;51.718;19.446;2022-10-31T06:46:24;99992.02;;;9.56;84.11
70971;BME280;58632;51.718;19.446;2022-10-31T06:48:50;99998.41;;;9.63;83.81
70971;BME280;58632;51.718;19.446;2022-10-31T06:51:15;100001.81;;;9.74;83.63
70971;BME280;58632;51.718;19.446;2022-10-31T06:53:41;99998.55;;;9.88;84.14
70971;BME280;58632;51.718;19.446;2022-10-31T06:56:06;100003.03;;;10.00;84.15
70971;BME280;58632;51.718;19.446;2022-10-31T06:58:32;100005.45;;;10.10;84.16
70971;BME280;58632;51.718;19.446;2022-10-31T07:00:58;100010.23;;;10.18;84.20
70971;BME280;58632;51.718;19.446;2022-10-31T07:03:24;100010.36;;;10.25;84.22
70971;BME280;58632;51.718;19.446;2022-10-31T07:05:49;100010.86;;;10.35;84.29
70971;BME280;58632;51.718;19.446;2022-10-31T07:08:15;100019.75;;;10.45;84.22
70971;BME280;58632;51.718;19.446;2022-10-31T07:10:41;100023.03;;;10.58;83.90
70971;BME280;58632;51.718;19.446;2022-10-31T07:13:11;100025.11;;;10.72;83.59
70971;BME280;58632;51.718;19.446;2022-10-31T07:15:37;100030.31;;;10.84;83.51
70971;BME280;58632;51.718;19.446;2022-10-31T07:18:03;100030.77;;;10.90;82.97
70971;BME280;58632;51.718;19.446;2022-10-31T07:20:30;100034.42;;;10.93;83.26
70971;BME280;58632;51.718;19.446;2022-10-31T07:22:56;100036.64;;;11.00;83.15
70971;BME280;58632;51.718;19.446;2022-10-31T07:25:22;100036.96;;;10.97;82.84
70971;BME280;58632;51.718;19.446;2022-10-31T07:27:47;100040.83;;;10.94;82.45
70971;BME280;58632;51.718;19.446;2022-10-31T07:30:13;100040.38;;;10.97;82.60
70971;BME280;58632;51.718;19.446;2022-10-31T07:32:42;100043.44;;;11.02;82.44
70971;BME280;58632;51.718;19.446;2022-10-31T07:35:09;100042.88;;;11.10;82.80
70971;BME280;58632;51.718;19.446;2022-10-31T07:37:35;100044.39;;;11.16;83.04
70971;BME280;58632;51.718;19.446;2022-10-31T07:40:01;100042.27;;;11.21;82.91
70971;BME280;58632;51.718;19.446;2022-10-31T07:42:27;100048.17;;;11.26;82.89
70971;BME280;58632;51.718;19.446;2022-10-31T07:44:52;100048.98;;;11.33;82.82
70971;BME280;58632;51.718;19.446;2022-10-31T07:47:18;100051.05;;;11.48;82.90
70971;BME280;58632;51.718;19.446;2022-10-31T07:49:44;100052.37;;;11.55;82.64
70971;BME280;58632;51.718;19.446;2022-10-31T07:52:09;100049.51;;;11.61;82.69
70971;BME280;58632;51.718;19.446;2022-10-31T07:54:35;100049.11;;;11.70;82.66
70971;BME280;58632;51.718;19.446;2022-10-31T07:57:00;100053.76;;;11.74;82.44
70971;BME280;58632;51.718;19.446;2022-10-31T07:59:26;100056.70;;;11.78;82.71
70971;BME280;58632;51.718;19.446;2022-10-31T08:01:52;100056.48;;;11.94;83.17
70971;BME280;58632;51.718;19.446;2022-10-31T08:04:18;100051.23;;;12.02;82.88
70971;BME280;58632;51.718;19.446;2022-10-31T08:06:44;100049.61;;;12.20;82.78
70971;BME280;58632;51.718;19.446;2022-10-31T08:09:09;100047.17;;;12.34;82.64
70971;BME280;58632;51.718;19.446;2022-10-31T08:11:35;100048.88;;;12.52;83.06
70971;BME280;58632;51.718;19.446;2022-10-31T08:14:00;100049.08;;;12.66;82.71
70971;BME280;58632;51.718;19.446;2022-10-31T08:16:26;100055.02;;;12.79;82.37
70971;BME280;58632;51.718;19.446;2022-10-31T08:18:52;100055.99;;;12.94;82.71
70971;BME280;58632;51.718;19.446;2022-10-31T08:21:19;100056.54;;;13.07;82.75
70971;BME280;58632;51.718;19.446;2022-10-31T08:23:45;100059.73;;;13.19;82.70
70971;BME280;58632;51.718;19.446;2022-10-31T08:26:10;100061.32;;;13.37;82.17
70971;BME280;58632;51.718;19.446;2022-10-31T08:28:36;100063.48;;;13.50;82.07
70971;BME280;58632;51.718;19.446;2022-10-31T08:31:01;100065.02;;;13.60;81.53
70971;BME280;58632;51.718;19.446;2022-10-31T08:33:27;100065.81;;;13.60;81.07
70971;BME280;58632;51.718;19.446;2022-10-31T08:35:52;100067.67;;;13.62;81.03
70971;BME280;58632;51.718;19.446;2022-10-31T08:38:18;100069.56;;;13.68;81.38
70971;BME280;58632;51.718;19.446;2022-10-31T08:40:47;100061.83;;;13.75;81.38
70971;BME280;58632;51.718;19.446;2022-10-31T08:43:14;100063.23;;;13.87;81.43
70971;BME280;58632;51.718;19.446;2022-10-31T08:45:40;100061.32;;;14.01;80.89
70971;BME280;58632;51.718;19.446;2022-10-31T08:48:07;100061.78;;;14.07;80.45
70971;BME280;58632;51.718;19.446;2022-10-31T08:50:34;100059.77;;;14.12;80.30
70971;BME280;58632;51.718;19.446;2022-10-31T08:53:04;100063.16;;;14.12;79.85
70971;BME280;58632;51.718;19.446;2022-10-31T08:55:30;100060.23;;;14.14;80.27
70971;BME280;58632;51.718;19.446;2022-10-31T08:57:57;100063.02;;;14.22;80.32
70971;BME280;58632;51.718;19.446;2022-10-31T09:00:23;100067.88;;;14.30;80.47
70971;BME280;58632;51.718;19.446;2022-10-31T09:02:55;100065.89;;;14.38;80.42
70971;BME280;58632;51.718;19.446;2022-10-31T09:05:21;100064.82;;;14.49;80.01
70971;BME280;58632;51.718;19.446;2022-10-31T09:07:47;100065.59;;;14.59;79.98
70971;BME280;58632;51.718;19.446;2022-10-31T09:10:13;100061.34;;;14.68;79.86
70971;BME280;58632;51.718;19.446;2022-10-31T09:12:38;100063.80;;;14.71;79.68
70971;BME280;58632;51.718;19.446;2022-10-31T09:15:04;100066.11;;;14.77;79.92
70971;BME280;58632;51.718;19.446;2022-10-31T09:17:31;100067.85;;;14.85;79.91
70971;BME280;58632;51.718;19.446;2022-10-31T09:19:57;100068.50;;;14.85;79.53
70971;BME280;58632;51.718;19.446;2022-10-31T09:22:23;100071.27;;;14.86;79.16
70971;BME280;58632;51.718;19.446;2022-10-31T09:24:48;100068.56;;;14.85;79.13
70971;BME280;58632;51.718;19.446;2022-10-31T09:27:14;100071.14;;;14.91;79.64
70971;BME280;58632;51.718;19.446;2022-10-31T09:29:39;100068.86;;;15.04;80.11
70971;BME280;58632;51.718;19.446;2022-10-31T09:32:05;100068.87;;;15.18;80.01
70971;BME280;58632;51.718;19.446;2022-10-31T09:34:31;100068.23;;;15.34;79.65
70971;BME280;58632;51.718;19.446;2022-10-31T09:36:56;100070.56;;;15.43;79.09
70971;BME280;58632;51.718;19.446;2022-10-31T09:39:22;100072.08;;;15.51;78.86
70971;BME280;58632;51.718;19.446;2022-10-31T09:47:04;100072.66;;;15.92;78.82
70971;BME280;58632;51.718;19.446;2022-10-31T09:52:22;100074.95;;;15.92;77.08
70971;BME280;58632;51.718;19.446;2022-10-31T09:57:15;100075.76;;;15.95;77.70
70971;BME280;58632;51.718;19.446;2022-10-31T09:59:41;100072.61;;;16.09;77.97
70971;BME280;58632;51.718;19.446;2022-10-31T10:07:40;100075.95;;;16.39;77.00
70971;BME280;58632;51.718;19.446;2022-10-31T10:10:00;100073.50;;;16.45;76.63
70971;BME280;58632;51.718;19.446;2022-10-31T10:17:23;100073.67;;;16.64;76.35
70971;BME280;58632;51.718;19.446;2022-10-31T10:25:07;100072.23;;;16.73;76.39
70971;BME280;58632;51.718;19.446;2022-10-31T10:30:13;100070.84;;;16.96;75.29
70971;BME280;58632;51.718;19.446;2022-10-31T10:32:42;100066.33;;;16.99;75.00
70971;BME280;58632;51.718;19.446;2022-10-31T10:35:16;100060.23;;;16.98;74.81
70971;BME280;58632;51.718;19.446;2022-10-31T10:37:44;100065.06;;;16.99;75.00
70971;BME280;58632;51.718;19.446;2022-10-31T10:40:19;100065.85;;;16.98;74.83
70971;BME280;58632;51.718;19.446;2022-10-31T10:48:47;100068.82;;;17.03;74.41
70971;BME280;58632;51.718;19.446;2022-10-31T10:51:22;100066.23;;;16.98;74.46
70971;BME280;58632;51.718;19.446;2022-10-31T10:54:01;100066.48;;;16.95;74.56
70971;BME280;58632;51.718;19.446;2022-10-31T10:56:45;100061.07;;;17.00;74.82
70971;BME280;58632;51.718;19.446;2022-10-31T10:59:13;100061.52;;;17.09;74.93
70971;BME280;58632;51.718;19.446;2022-10-31T11:01:39;100065.85;;;17.15;74.85
70971;BME280;58632;51.718;19.446;2022-10-31T11:04:11;100064.44;;;17.12;74.20
70971;BME280;58632;51.718;19.446;2022-10-31T11:06:45;100067.40;;;17.07;74.31
70971;BME280;58632;51.718;19.446;2022-10-31T11:09:14;100065.84;;;17.05;74.47
70971;BME280;58632;51.718;19.446;2022-10-31T11:11:40;100066.77;;;16.97;74.70
70971;BME280;58632;51.718;19.446;2022-10-31T11:14:11;100067.94;;;17.00;74.77
70971;BME280;58632;51.718;19.446;2022-10-31T11:16:38;100065.53;;;17.08;75.03
70971;BME280;58632;51.718;19.446;2022-10-31T11:19:06;100067.26;;;17.10;74.67
70971;BME280;58632;51.718;19.446;2022-10-31T11:21:32;100066.15;;;17.04;74.61
70971;BME280;58632;51.718;19.446;2022-10-31T11:24:42;100068.59;;;17.01;74.51
70971;BME280;58632;51.718;19.446;2022-10-31T11:26:49;100067.41;;;17.11;75.25
70971;BME280;58632;51.718;19.446;2022-10-31T11:29:22;100069.74;;;17.23;74.92
70971;BME280;58632;51.718;19.446;2022-10-31T11:31:53;100069.66;;;17.33;75.04
70971;BME280;58632;51.718;19.446;2022-10-31T11:34:27;100068.19;;;17.48;74.97
70971;BME280;58632;51.718;19.446;2022-10-31T11:36:54;100070.05;;;17.61;74.35
70971;BME280;58632;51.718;19.446;2022-10-31T11:39:23;100067.94;;;17.69;73.83
70971;BME280;58632;51.718;19.446;2022-10-31T11:41:50;100065.56;;;17.73;73.51
70971;BME280;58632;51.718;19.446;2022-10-31T11:44:24;100060.84;;;17.70;73.08
70971;BME280;58632;51.718;19.446;2022-10-31T11:47:00;100062.83;;;17.75;73.31
70971;BME280;58632;51.718;19.446;2022-10-31T11:51:55;100060.38;;;17.85;73.42
70971;BME280;58632;51.718;19.446;2022-10-31T11:54:27;100061.96;;;17.78;72.97
70971;BME280;58632;51.718;19.446;2022-10-31T11:56:53;100058.14;;;17.74;73.17
70971;BME280;58632;51.718;19.446;2022-10-31T11:59:23;100059.03;;;17.75;73.18
70971;BME280;58632;51.718;19.446;2022-10-31T12:01:50;100062.39;;;17.66;73.22
70971;BME280;58632;51.718;19.446;2022-10-31T12:04:16;100057.96;;;17.62;73.33
70971;BME280;58632;51.718;19.446;2022-10-31T12:06:43;100056.63;;;17.70;73.47
70971;BME280;58632;51.718;19.446;2022-10-31T12:09:16;100054.92;;;17.79;72.94
70971;BME280;58632;51.718;19.446;2022-10-31T12:22:12;100055.40;;;18.02;72.36
70971;BME280;58632;51.718;19.446;2022-10-31T12:43:25;100035.42;;;17.33;72.43
70971;BME280;58632;51.718;19.446;2022-10-31T12:53:46;100026.65;;;16.88;73.35
70971;BME280;58632;51.718;19.446;2022-10-31T12:56:19;100026.23;;;16.87;73.70
70971;BME280;58632;51.718;19.446;2022-10-31T12:58:59;100027.66;;;16.90;73.49
70971;BME280;58632;51.718;19.446;2022-10-31T13:01:32;100026.31;;;16.87;73.55
70971;BME280;58632;51.718;19.446;2022-10-31T13:06:59;100025.20;;;16.72;73.74
70971;BME280;58632;51.718;19.446;2022-10-31T13:09:19;100029.56;;;16.69;73.80
70971;BME280;58632;51.718;19.446;2022-10-31T13:11:56;100035.13;;;16.68;73.88
70971;BME280;58632;51.718;19.446;2022-10-31T13:14:27;100031.56;;;16.64;74.01
70971;BME280;58632;51.718;19.446;2022-10-31T13:16:56;100024.48;;;16.69;74.20
70971;BME280;58632;51.718;19.446;2022-10-31T13:19:23;100024.55;;;16.74;74.20
70971;BME280;58632;51.718;19.446;2022-10-31T13:24:18;100023.71;;;16.76;73.83
70971;BME280;58632;51.718;19.446;2022-10-31T13:26:50;100022.73;;;16.74;73.89
70971;BME280;58632;51.718;19.446;2022-10-31T13:31:42;100024.95;;;16.75;74.10
70971;BME280;58632;51.718;19.446;2022-10-31T13:37:04;100025.73;;;16.80;74.39
70971;BME280;58632;51.718;19.446;2022-10-31T13:42:20;100022.53;;;16.85;74.25
70971;BME280;58632;51.718;19.446;2022-10-31T13:44:48;100029.23;;;16.87;73.89
70971;BME280;58632;51.718;19.446;2022-10-31T13:47:27;100029.05;;;16.86;73.80
70971;BME280;58632;51.718;19.446;2022-10-31T13:50:03;100027.83;;;16.84;73.79
70971;BME280;58632;51.718;19.446;2022-10-31T13:52:30;100028.83;;;16.81;73.74
70971;BME280;58632;51.718;19.446;2022-10-31T13:54:56;100029.73;;;16.77;73.79
70971;BME280;58632;51.718;19.446;2022-10-31T13:59:58;100027.48;;;16.75;73.68
70971;BME280;58632;51.718;19.446;2022-10-31T14:02:31;100027.61;;;16.74;73.76
70971;BME280;58632;51.718;19.446;2022-10-31T14:05:01;100029.28;;;16.70;73.69
70971;BME280;58632;51.718;19.446;2022-10-31T14:07:28;100035.30;;;16.68;73.89
70971;BME280;58632;51.718;19.446;2022-10-31T14:10:19;100035.21;;;16.65;73.73
70971;BME280;58632;51.718;19.446;2022-10-31T14:12:46;100033.73;;;16.59;73.76
70971;BME280;58632;51.718;19.446;2022-10-31T14:15:14;100033.12;;;16.53;74.01
70971;BME280;58632;51.718;19.446;2022-10-31T14:17:48;100033.89;;;16.47;74.00
70971;BME280;58632;51.718;19.446;2022-10-31T14:22:40;100035.88;;;16.32;74.41
70971;BME280;58632;51.718;19.446;2022-10-31T14:25:29;100031.95;;;16.27;74.35
70971;BME280;58632;51.718;19.446;2022-10-31T14:27:55;100030.16;;;16.21;74.39
70971;BME280;58632;51.718;19.446;2022-10-31T14:30:22;100032.17;;;16.18;74.52
70971;BME280;58632;51.718;19.446;2022-10-31T14:32:53;100034.55;;;16.12;74.63
70971;BME280;58632;51.718;19.446;2022-10-31T14:35:20;100031.00;;;16.05;74.65
70971;BME280;58632;51.718;19.446;2022-10-31T14:45:53;100028.88;;;15.67;75.31
70971;BME280;58632;51.718;19.446;2022-10-31T14:51:18;100022.16;;;15.48;75.55
70971;BME280;58632;51.718;19.446;2022-10-31T14:56:13;100014.63;;;15.28;75.64
70971;BME280;58632;51.718;19.446;2022-10-31T14:58:43;100013.74;;;15.17;75.61
70971;BME280;58632;51.718;19.446;2022-10-31T15:01:48;100013.52;;;15.05;75.92
70971;BME280;58632;51.718;19.446;2022-10-31T15:04:16;100015.27;;;14.88;76.02
70971;BME280;58632;51.718;19.446;2022-10-31T15:06:43;100017.52;;;14.77;76.11